Time;durP1;ratioP1;P1;durP2;ratioP2;P2;SDS_P1;SDS_P2;PMS_P1;PMS_P2;Temp;Humidity;BMP_temperature;BMP_pressure;BME280_temperature;BME280_humidity;BME280_pressure;Samples;Min_cycle;Max_cycle;Signal;HPM_P1;HPM_P2
2021/07/25 00:02:23;;;;;;;12.10;9.07;;;19.10;99.90;;;;;;4995209;28;20169;-61
2021/07/25 00:04:49;;;;;;;10.30;9.10;;;19.00;99.90;;;;;;4994965;28;20227;-61
2021/07/25 00:07:14;;;;;;;11.70;9.03;;;18.90;99.90;;;;;;4994857;28;20235;-60
2021/07/25 00:09:40;;;;;;;10.47;9.37;;;18.90;99.90;;;;;;4994940;28;20260;-61
2021/07/25 00:12:06;;;;;;;11.10;8.67;;;18.80;99.90;;;;;;4994821;28;20552;-60
2021/07/25 00:14:32;;;;;;;12.83;8.60;;;18.80;99.90;;;;;;4994422;28;20232;-61
2021/07/25 00:16:57;;;;;;;10.60;8.27;;;18.80;99.90;;;;;;4994918;28;20530;-62
2021/07/25 00:19:23;;;;;;;10.97;8.00;;;18.70;99.90;;;;;;4994735;28;20177;-57
2021/07/25 00:21:48;;;;;;;7.93;7.17;;;18.70;99.90;;;;;;4994814;28;20174;-61
2021/07/25 00:24:18;;;;;;;9.23;7.93;;;18.70;99.90;;;;;;4994930;28;20208;-61
2021/07/25 00:26:48;;;;;;;12.77;8.00;;;18.60;99.90;;;;;;4994766;28;20649;-61
2021/07/25 00:29:14;;;;;;;8.73;7.57;;;18.70;99.90;;;;;;4994629;28;20303;-61
2021/07/25 00:31:39;;;;;;;7.87;6.97;;;18.80;99.90;;;;;;4995080;28;20215;-61
2021/07/25 00:34:05;;;;;;;7.87;6.60;;;18.90;99.90;;;;;;4994377;28;20283;-62
2021/07/25 00:36:31;;;;;;;9.53;6.80;;;18.90;99.90;;;;;;4994920;28;20182;-58
2021/07/25 00:38:56;;;;;;;9.40;6.90;;;19.00;99.90;;;;;;4994927;28;20185;-56
2021/07/25 00:41:22;;;;;;;9.73;7.10;;;18.90;99.90;;;;;;4994350;28;20201;-57
2021/07/25 00:43:48;;;;;;;9.13;6.77;;;18.90;99.90;;;;;;4994326;28;20196;-60
2021/07/25 00:46:15;;;;;;;7.30;6.60;;;18.90;99.90;;;;;;4994402;28;20204;-61
2021/07/25 00:48:42;;;;;;;7.60;6.37;;;19.00;99.90;;;;;;4994825;28;20220;-60
2021/07/25 00:51:08;;;;;;;8.63;6.17;;;19.20;99.90;;;;;;4994167;28;20201;-59
2021/07/25 00:53:36;;;;;;;8.50;6.70;;;19.20;99.90;;;;;;4994505;28;20196;-59
2021/07/25 00:56:09;;;;;;;7.87;6.60;;;19.30;99.90;;;;;;4994688;28;20175;-61
2021/07/25 00:58:39;;;;;;;7.80;6.60;;;19.40;99.90;;;;;;4994749;28;20188;-61
2021/07/25 01:01:06;;;;;;;8.63;6.50;;;19.50;99.90;;;;;;4994681;28;20213;-62
2021/07/25 01:03:41;;;;;;;8.13;6.50;;;19.60;99.90;;;;;;4994533;28;20205;-61
2021/07/25 01:06:22;;;;;;;8.93;6.90;;;19.60;99.90;;;;;;4994735;28;20629;-61
2021/07/25 01:09:02;;;;;;;7.00;6.30;;;19.70;99.90;;;;;;4994172;28;20215;-60
2021/07/25 01:11:36;;;;;;;12.60;7.23;;;19.60;99.90;;;;;;4993886;28;20193;-58
2021/07/25 01:14:03;;;;;;;9.77;6.80;;;19.60;99.90;;;;;;4994367;28;20546;-60
2021/07/25 01:16:31;;;;;;;10.10;6.63;;;19.80;99.90;;;;;;4994274;28;20177;-61
2021/07/25 01:18:57;;;;;;;8.13;6.40;;;19.80;99.90;;;;;;4994963;28;20184;-62
2021/07/25 01:21:23;;;;;;;8.77;6.87;;;19.90;99.90;;;;;;4998274;28;20285;-62
2021/07/25 01:23:49;;;;;;;8.47;7.07;;;19.90;99.90;;;;;;4998074;28;20197;-61
2021/07/25 01:26:19;;;;;;;7.70;6.77;;;19.90;99.90;;;;;;4997997;28;20565;-58
2021/07/25 01:28:47;;;;;;;8.90;7.40;;;19.90;99.90;;;;;;4998305;28;20248;-62
2021/07/25 01:31:18;;;;;;;8.83;7.93;;;20.00;99.90;;;;;;4998505;28;20626;-62
2021/07/25 01:33:48;;;;;;;8.93;7.57;;;20.00;99.90;;;;;;4997872;28;20725;-62
2021/07/25 01:36:14;;;;;;;8.70;7.80;;;19.90;99.90;;;;;;4998396;28;20197;-59
2021/07/25 01:38:40;;;;;;;8.47;7.67;;;19.80;99.90;;;;;;4997781;28;20239;-61
2021/07/25 01:41:11;;;;;;;12.43;7.93;;;19.80;99.90;;;;;;4997828;28;20665;-61
2021/07/25 01:43:42;;;;;;;12.20;8.30;;;19.90;99.90;;;;;;4997664;28;20268;-62
2021/07/25 01:46:08;;;;;;;9.47;8.00;;;19.80;99.90;;;;;;4998217;28;20169;-57
2021/07/25 01:48:36;;;;;;;9.77;7.97;;;19.80;99.90;;;;;;4997401;28;20221;-62
2021/07/25 01:51:01;;;;;;;8.40;7.47;;;19.80;99.90;;;;;;4997713;28;20546;-59
2021/07/25 01:53:27;;;;;;;9.10;7.57;;;19.90;99.90;;;;;;4997250;28;20719;-61
2021/07/25 01:55:53;;;;;;;18.63;8.40;;;19.90;99.90;;;;;;4997708;28;20530;-62
2021/07/25 01:58:18;;;;;;;9.67;7.87;;;19.80;99.90;;;;;;4997532;28;20680;-61
2021/07/25 02:00:44;;;;;;;8.57;7.60;;;19.80;99.90;;;;;;4997240;28;20189;-62
2021/07/25 02:03:09;;;;;;;9.30;7.17;;;19.80;99.90;;;;;;4997204;28;20247;-61
2021/07/25 02:05:36;;;;;;;8.17;6.60;;;19.80;99.90;;;;;;4997292;28;20186;-59
2021/07/25 02:08:02;;;;;;;8.70;6.50;;;19.80;99.90;;;;;;4997542;28;20211;-59
2021/07/25 02:10:28;;;;;;;8.10;6.77;;;19.80;99.90;;;;;;4996955;28;20224;-62
2021/07/25 02:12:53;;;;;;;7.80;6.73;;;19.70;99.90;;;;;;4996187;28;20201;-58
2021/07/25 02:15:19;;;;;;;8.67;7.77;;;19.80;99.90;;;;;;4997116;28;20177;-62
2021/07/25 02:17:44;;;;;;;9.20;7.40;;;19.70;99.90;;;;;;4997481;28;20177;-59
2021/07/25 02:20:10;;;;;;;10.63;8.77;;;19.70;99.90;;;;;;4997237;28;20197;-60
2021/07/25 02:22:36;;;;;;;11.77;10.57;;;19.70;99.90;;;;;;4996966;28;20203;-59
2021/07/25 02:25:01;;;;;;;13.13;10.60;;;19.60;99.90;;;;;;4997136;28;20185;-61
2021/07/25 02:27:27;;;;;;;11.87;9.37;;;19.60;99.90;;;;;;4996837;28;20181;-61
2021/07/25 02:29:52;;;;;;;10.53;9.43;;;19.50;99.90;;;;;;4996767;28;20213;-62
2021/07/25 02:32:18;;;;;;;11.47;9.37;;;19.40;99.90;;;;;;4996950;28;20652;-62
2021/07/25 02:34:44;;;;;;;9.27;8.37;;;19.40;99.90;;;;;;5004203;28;20653;-62
2021/07/25 02:37:14;;;;;;;9.57;8.57;;;19.40;99.90;;;;;;4992075;28;20211;-61
2021/07/25 02:39:40;;;;;;;9.93;8.53;;;19.40;99.90;;;;;;4988757;28;20229;-61
2021/07/25 02:42:05;;;;;;;13.17;9.43;;;19.40;99.90;;;;;;4994032;28;20201;-59
2021/07/25 02:44:31;;;;;;;12.23;9.60;;;19.30;99.90;;;;;;4985481;28;20561;-59
2021/07/25 02:46:57;;;;;;;11.47;9.97;;;19.40;99.90;;;;;;4984107;28;20182;-62
2021/07/25 02:49:22;;;;;;;12.47;10.30;;;19.40;99.90;;;;;;4998734;28;20268;-61
2021/07/25 02:51:48;;;;;;;10.40;9.30;;;19.30;99.90;;;;;;4996438;28;20250;-60
2021/07/25 02:54:14;;;;;;;10.93;9.30;;;19.30;99.90;;;;;;4993089;28;20196;-60
2021/07/25 02:56:39;;;;;;;13.17;9.47;;;19.30;99.90;;;;;;4992200;28;20192;-61
2021/07/25 02:59:05;;;;;;;10.03;8.97;;;19.30;99.90;;;;;;4994410;28;20181;-59
2021/07/25 03:01:31;;;;;;;9.67;8.40;;;19.30;99.90;;;;;;4995868;28;20172;-62
2021/07/25 03:03:57;;;;;;;10.30;9.17;;;19.30;99.90;;;;;;4994492;28;20534;-61
2021/07/25 03:06:22;;;;;;;12.07;10.10;;;19.20;99.90;;;;;;4994217;28;20195;-62
2021/07/25 03:08:48;;;;;;;11.87;10.23;;;19.20;99.90;;;;;;4976481;28;20206;-61
2021/07/25 03:11:13;;;;;;;10.70;9.57;;;19.20;99.90;;;;;;4996138;28;20169;-61
2021/07/25 03:13:39;;;;;;;11.23;10.10;;;19.20;99.90;;;;;;4995836;28;20208;-62
2021/07/25 03:16:09;;;;;;;10.37;9.27;;;19.20;99.90;;;;;;4996537;28;20173;-62
2021/07/25 03:18:35;;;;;;;10.67;9.00;;;19.20;99.90;;;;;;4996211;28;20181;-58
2021/07/25 03:21:02;;;;;;;9.90;8.67;;;19.20;99.90;;;;;;4996152;28;20179;-60
2021/07/25 03:23:28;;;;;;;10.57;8.80;;;19.10;99.90;;;;;;4995580;28;20223;-62
2021/07/25 03:25:54;;;;;;;10.73;9.00;;;19.10;99.90;;;;;;4996057;28;20180;-62
2021/07/25 03:28:20;;;;;;;10.43;8.27;;;19.10;99.90;;;;;;4995617;28;20174;-61
2021/07/25 03:30:47;;;;;;;12.40;9.50;;;19.00;99.90;;;;;;4995646;28;20173;-59
2021/07/25 03:33:13;;;;;;;12.73;9.07;;;19.00;99.90;;;;;;4995544;28;20739;-61
2021/07/25 03:35:39;;;;;;;9.83;8.83;;;19.10;99.90;;;;;;4995853;28;20189;-62
2021/07/25 03:38:05;;;;;;;10.60;8.83;;;19.20;99.90;;;;;;4995788;28;20688;-60
2021/07/25 03:40:30;;;;;;;9.83;8.73;;;19.20;99.90;;;;;;4995363;28;20196;-61
2021/07/25 03:42:57;;;;;;;10.47;9.37;;;19.30;99.90;;;;;;4994779;28;20587;-61
2021/07/25 03:45:23;;;;;;;10.77;9.10;;;19.30;99.90;;;;;;4995410;28;20177;-62
2021/07/25 03:47:49;;;;;;;10.33;9.17;;;19.20;99.90;;;;;;4995535;28;20170;-61
2021/07/25 03:50:14;;;;;;;11.00;9.50;;;19.30;99.90;;;;;;4995096;28;20350;-62
2021/07/25 03:52:40;;;;;;;10.23;9.23;;;19.40;99.90;;;;;;4995266;28;20240;-60
2021/07/25 03:55:06;;;;;;;10.60;9.17;;;19.40;99.90;;;;;;4995160;28;20515;-61
2021/07/25 03:57:33;;;;;;;10.67;9.10;;;19.50;99.90;;;;;;4995287;28;20187;-61
2021/07/25 03:59:58;;;;;;;12.13;10.93;;;19.60;99.90;;;;;;4995491;28;20177;-62
2021/07/25 04:02:24;;;;;;;13.10;9.93;;;19.60;99.90;;;;;;4994778;28;20196;-62
2021/07/25 04:04:50;;;;;;;11.30;9.33;;;19.60;99.90;;;;;;4995610;28;20165;-61
2021/07/25 04:07:15;;;;;;;10.17;8.40;;;19.70;99.90;;;;;;4995404;28;20207;-62
2021/07/25 04:09:41;;;;;;;10.10;9.10;;;19.70;99.90;;;;;;4994889;28;20249;-61
2021/07/25 04:12:06;;;;;;;11.53;9.43;;;19.80;99.90;;;;;;4994903;28;20645;-60
2021/07/25 04:14:32;;;;;;;11.50;10.30;;;19.80;99.90;;;;;;4994938;28;20585;-61
2021/07/25 04:16:58;;;;;;;13.47;10.10;;;19.80;99.90;;;;;;4995322;28;20180;-62
2021/07/25 04:19:23;;;;;;;10.27;9.10;;;19.90;99.90;;;;;;4994632;28;20189;-60
2021/07/25 04:21:49;;;;;;;9.47;8.57;;;19.80;99.90;;;;;;4994819;28;20201;-62
2021/07/25 04:24:14;;;;;;;9.83;8.83;;;19.80;99.90;;;;;;4994633;28;20700;-61
2021/07/25 04:26:40;;;;;;;9.50;8.60;;;19.80;99.90;;;;;;4994742;28;20565;-61
2021/07/25 04:29:06;;;;;;;13.07;10.17;;;19.80;99.90;;;;;;4995021;28;20200;-62
2021/07/25 04:31:32;;;;;;;10.80;9.30;;;19.80;99.90;;;;;;4994694;28;20173;-62
2021/07/25 04:33:59;;;;;;;11.10;9.87;;;19.90;99.90;;;;;;4994395;28;20642;-61
2021/07/25 04:36:28;;;;;;;10.80;9.60;;;20.10;99.90;;;;;;4994744;28;20209;-61
2021/07/25 04:38:55;;;;;;;12.43;10.27;;;20.10;99.90;;;;;;4994379;28;20196;-61
2021/07/25 04:41:23;;;;;;;10.90;9.80;;;20.30;99.90;;;;;;4994500;28;20178;-60
2021/07/25 04:43:59;;;;;;;11.27;10.17;;;20.40;99.90;;;;;;4994614;28;20224;-60
2021/07/25 04:46:29;;;;;;;9.80;8.80;;;20.50;99.90;;;;;;4994731;28;20712;-61
2021/07/25 04:49:05;;;;;;;10.97;9.30;;;20.50;99.90;;;;;;4994840;28;20211;-61
2021/07/25 04:51:31;;;;;;;10.73;9.63;;;20.50;99.90;;;;;;4994781;28;20157;-56
2021/07/25 04:54:06;;;;;;;10.80;9.70;;;21.10;99.90;;;;;;4994345;28;20189;-62
2021/07/25 04:56:57;;;;;;;10.63;9.53;;;20.70;99.90;;;;;;4994728;28;20252;-63
2021/07/25 04:59:45;;;;;;;10.13;8.97;;;20.80;99.90;;;;;;4993929;28;20264;-60
2021/07/25 05:02:13;;;;;;;8.77;7.87;;;20.90;99.90;;;;;;4994185;28;20554;-62
2021/07/25 05:04:39;;;;;;;8.73;7.83;;;21.00;99.90;;;;;;4994259;28;20230;-62
2021/07/25 05:07:09;;;;;;;9.63;8.00;;;21.00;99.90;;;;;;4994388;28;20272;-61
2021/07/25 05:09:35;;;;;;;10.37;7.97;;;20.90;99.90;;;;;;4994444;28;20212;-62
2021/07/25 05:12:27;;;;;;;10.40;8.50;;;21.00;99.90;;;;;;4993830;28;20586;-61
2021/07/25 05:15:12;;;;;;;8.70;7.80;;;21.00;99.90;;;;;;4994656;28;20632;-60
2021/07/25 05:17:49;;;;;;;10.10;8.50;;;20.70;99.90;;;;;;4994395;28;20490;-62
2021/07/25 05:20:15;;;;;;;9.10;7.97;;;20.60;99.90;;;;;;4994394;28;20177;-62
2021/07/25 05:23:03;;;;;;;9.13;8.23;;;20.20;99.90;;;;;;4993638;28;20209;-61
2021/07/25 05:25:31;;;;;;;10.60;8.83;;;19.90;99.90;;;;;;4994920;28;20245;-61
2021/07/25 05:28:03;;;;;;;10.57;8.40;;;19.80;99.90;;;;;;4993987;28;20170;-61
2021/07/25 05:30:30;;;;;;;9.80;8.80;;;19.80;99.90;;;;;;4994237;28;20212;-59
2021/07/25 05:32:55;;;;;;;9.47;7.73;;;19.90;99.90;;;;;;4993633;28;20664;-61
2021/07/25 05:35:21;;;;;;;11.80;9.60;;;19.80;99.90;;;;;;4994338;28;20657;-62
2021/07/25 05:37:46;;;;;;;9.77;8.60;;;19.90;99.90;;;;;;4994023;28;20260;-59
2021/07/25 05:40:14;;;;;;;9.80;7.77;;;19.90;99.90;;;;;;4993871;28;20182;-62
2021/07/25 05:42:41;;;;;;;9.07;7.40;;;20.00;99.90;;;;;;4993857;28;20205;-58
2021/07/25 05:45:08;;;;;;;8.67;7.83;;;20.30;99.90;;;;;;4994502;28;20544;-62
2021/07/25 05:47:34;;;;;;;8.20;7.40;;;20.60;99.90;;;;;;4994432;28;20177;-59
2021/07/25 05:50:00;;;;;;;11.47;9.17;;;20.80;99.90;;;;;;4994410;28;20196;-60
2021/07/25 05:52:25;;;;;;;9.13;8.23;;;20.80;99.90;;;;;;4993660;28;20196;-62
2021/07/25 05:54:51;;;;;;;10.50;9.03;;;20.80;99.90;;;;;;4993889;28;20184;-62
2021/07/25 05:57:16;;;;;;;11.20;9.33;;;20.80;99.90;;;;;;4993786;28;20630;-60
2021/07/25 05:59:42;;;;;;;9.30;8.23;;;20.60;99.90;;;;;;4994211;28;20182;-62
2021/07/25 06:02:07;;;;;;;9.23;8.33;;;20.40;99.90;;;;;;4993808;28;20177;-62
2021/07/25 06:04:33;;;;;;;9.27;8.23;;;20.90;99.90;;;;;;4993554;28;20201;-62
2021/07/25 06:06:59;;;;;;;9.63;8.33;;;20.30;99.90;;;;;;4997298;28;20184;-62
2021/07/25 06:09:24;;;;;;;8.37;7.50;;;20.40;99.90;;;;;;4997104;28;20287;-62
2021/07/25 06:11:51;;;;;;;9.47;7.90;;;20.40;99.90;;;;;;4997131;28;20324;-60
2021/07/25 06:14:17;;;;;;;8.93;7.93;;;20.30;99.90;;;;;;4997039;28;20196;-58
2021/07/25 06:16:43;;;;;;;10.77;8.60;;;20.30;99.90;;;;;;4997527;28;20173;-62
2021/07/25 06:19:08;;;;;;;9.20;7.90;;;20.30;99.90;;;;;;4997385;28;20642;-62
2021/07/25 06:21:34;;;;;;;8.27;7.40;;;20.20;99.90;;;;;;4997279;28;20228;-62
2021/07/25 06:23:59;;;;;;;7.70;6.90;;;20.30;99.90;;;;;;4997039;28;20251;-61
2021/07/25 06:26:26;;;;;;;9.70;8.13;;;20.30;99.90;;;;;;4997250;28;20179;-63
2021/07/25 06:28:52;;;;;;;10.47;8.57;;;20.40;99.90;;;;;;4996941;28;20197;-59
2021/07/25 06:31:17;;;;;;;8.93;8.00;;;20.40;99.90;;;;;;4996966;28;20201;-61
2021/07/25 06:33:43;;;;;;;8.17;7.20;;;20.50;99.90;;;;;;4998661;28;20205;-62
2021/07/25 06:36:13;;;;;;;10.17;7.30;;;20.50;99.90;;;;;;5005293;28;20173;-62
2021/07/25 06:38:42;;;;;;;8.00;7.20;;;20.70;99.90;;;;;;5013125;28;20267;-62
2021/07/25 06:41:08;;;;;;;9.38;7.03;;;20.90;99.90;;;;;;5007026;28;20177;-62
2021/07/25 06:43:34;;;;;;;9.82;7.43;;;21.10;99.90;;;;;;5005625;28;20249;-61
2021/07/25 06:45:59;;;;;;;9.40;6.95;;;21.20;99.90;;;;;;5005601;28;20276;-60
2021/07/25 06:48:29;;;;;;;7.82;7.03;;;21.40;99.90;;;;;;5006187;28;20273;-60
2021/07/25 06:50:57;;;;;;;8.27;6.72;;;21.60;99.90;;;;;;5004234;28;20187;-63
2021/07/25 06:53:25;;;;;;;8.05;7.10;;;21.80;99.90;;;;;;5002925;28;20252;-62
2021/07/25 06:55:52;;;;;;;8.95;7.07;;;21.80;99.90;;;;;;5005003;28;20170;-63
2021/07/25 06:58:19;;;;;;;10.52;8.50;;;21.90;99.90;;;;;;5004629;28;20175;-61
2021/07/25 07:00:45;;;;;;;9.02;7.18;;;22.00;99.90;;;;;;4985423;28;20191;-61
2021/07/25 07:03:10;;;;;;;7.95;7.00;;;22.10;99.90;;;;;;5004619;28;20199;-61
2021/07/25 07:05:36;;;;;;;7.30;6.60;;;22.10;99.90;;;;;;5002821;28;20634;-62
2021/07/25 07:08:04;;;;;;;7.63;6.82;;;22.10;99.90;;;;;;5003538;28;20202;-63
2021/07/25 07:10:32;;;;;;;7.75;6.63;;;22.20;99.90;;;;;;5007116;28;20208;-61
2021/07/25 07:12:59;;;;;;;8.70;6.85;;;22.20;99.90;;;;;;5003935;28;20658;-62
2021/07/25 07:15:27;;;;;;;7.68;6.93;;;22.40;99.90;;;;;;5015134;28;20179;-63
2021/07/25 07:17:54;;;;;;;7.00;6.30;;;22.70;99.90;;;;;;5001548;28;20213;-63
2021/07/25 07:20:21;;;;;;;6.82;6.03;;;22.90;99.90;;;;;;5007442;28;20700;-63
2021/07/25 07:22:56;;;;;;;7.75;6.57;;;23.20;99.90;;;;;;5007293;28;20243;-62
2021/07/25 07:25:24;;;;;;;6.70;6.05;;;23.20;99.90;;;;;;5005529;28;20181;-63
2021/07/25 07:27:50;;;;;;;7.65;6.60;;;23.10;99.90;;;;;;5000434;28;20640;-64
2021/07/25 07:30:17;;;;;;;7.20;6.50;;;22.90;99.90;;;;;;5004155;28;20197;-63
2021/07/25 07:32:42;;;;;;;7.70;6.47;;;23.00;99.90;;;;;;5004651;28;20223;-61
2021/07/25 07:35:08;;;;;;;7.45;6.43;;;23.00;99.90;;;;;;5005450;28;20169;-61
2021/07/25 07:37:34;;;;;;;7.68;6.45;;;23.00;99.90;;;;;;5005009;28;20174;-63
2021/07/25 07:40:00;;;;;;;7.57;6.88;;;22.90;99.90;;;;;;4967745;28;20542;-62
2021/07/25 07:42:26;;;;;;;9.23;7.15;;;23.10;99.90;;;;;;5004300;28;20358;-62
2021/07/25 07:44:51;;;;;;;11.57;7.63;;;23.30;99.90;;;;;;4986942;28;20195;-63
2021/07/25 07:47:17;;;;;;;8.93;7.40;;;23.40;99.90;;;;;;5005235;28;20177;-63
2021/07/25 07:49:43;;;;;;;8.75;7.85;;;23.10;99.90;;;;;;5005732;28;20287;-63
2021/07/25 07:52:08;;;;;;;10.20;7.50;;;23.10;99.90;;;;;;5006118;28;20180;-62
2021/07/25 07:54:34;;;;;;;7.80;7.10;;;23.30;99.90;;;;;;5004658;28;20189;-63
2021/07/25 07:57:00;;;;;;;7.35;6.50;;;23.50;99.90;;;;;;4987206;28;20636;-58
2021/07/25 07:59:28;;;;;;;10.43;6.93;;;23.70;99.90;;;;;;5004594;28;20172;-62
2021/07/25 08:01:54;;;;;;;8.20;7.40;;;23.60;99.90;;;;;;5004088;28;20184;-63
2021/07/25 08:04:19;;;;;;;10.10;8.23;;;23.30;99.90;;;;;;5004988;28;20193;-63
2021/07/25 08:06:48;;;;;;;8.00;7.05;;;23.30;99.90;;;;;;5003854;28;20181;-63
2021/07/25 08:09:13;;;;;;;7.63;6.38;;;23.40;99.90;;;;;;5001737;28;20205;-62
2021/07/25 08:11:45;;;;;;;8.32;6.70;;;23.70;99.90;;;;;;5002409;28;20541;-62
2021/07/25 08:14:15;;;;;;;8.95;6.70;;;23.80;99.90;;;;;;5000540;28;20186;-63
2021/07/25 08:16:42;;;;;;;7.65;6.88;;;23.90;99.90;;;;;;4997352;28;20174;-63
2021/07/25 08:19:09;;;;;;;6.93;5.70;;;24.00;99.90;;;;;;4994915;28;20185;-63
2021/07/25 08:21:34;;;;;;;7.00;5.75;;;24.00;99.90;;;;;;4994667;28;20232;-63
2021/07/25 08:24:00;;;;;;;6.78;6.10;;;24.20;99.90;;;;;;4994541;28;20226;-63
2021/07/25 08:26:26;;;;;;;7.78;6.07;;;24.00;99.90;;;;;;4995067;28;20183;-63
2021/07/25 08:28:51;;;;;;;6.97;5.50;;;23.80;99.90;;;;;;4994075;28;20201;-63
2021/07/25 08:31:17;;;;;;;6.32;5.57;;;24.00;99.90;;;;;;4994129;28;20220;-62
2021/07/25 08:33:42;;;;;;;6.13;5.53;;;24.40;99.90;;;;;;4993445;28;20193;-63
2021/07/25 08:36:08;;;;;;;6.03;5.43;;;24.50;99.90;;;;;;4994596;28;20180;-63
2021/07/25 08:38:33;;;;;;;6.20;5.60;;;24.40;99.90;;;;;;4994507;28;20533;-63
2021/07/25 08:41:19;;;;;;;7.90;6.22;;;24.40;99.90;;;;;;4998144;28;20181;-61
2021/07/25 08:43:47;;;;;;;5.70;5.13;;;24.20;99.90;;;;;;4972218;28;20212;-63
2021/07/25 08:46:14;;;;;;;10.38;6.40;;;24.20;99.90;;;;;;4999595;28;20162;-63
2021/07/25 08:48:47;;;;;;;7.05;6.35;;;24.10;99.90;;;;;;5002815;28;20202;-63
2021/07/25 08:51:19;;;;;;;6.72;5.40;;;24.20;99.90;;;;;;4999416;28;20645;-62
2021/07/25 08:54:03;;;;;;;6.03;5.45;;;24.00;99.90;;;;;;5001991;28;20311;-63
2021/07/25 08:56:32;;;;;;;7.38;6.20;;;24.20;99.90;;;;;;5003568;28;20184;-62
2021/07/25 08:59:05;;;;;;;6.95;6.18;;;24.20;99.90;;;;;;5002861;28;20169;-62
2021/07/25 09:01:34;;;;;;;7.88;6.32;;;24.10;99.90;;;;;;4999518;28;20197;-63
2021/07/25 09:04:01;;;;;;;8.85;7.35;;;23.90;99.90;;;;;;5005027;28;20688;-63
2021/07/25 09:06:47;;;;;;;7.65;6.43;;;23.70;99.90;;;;;;5003786;28;20246;-62
2021/07/25 09:09:13;;;;;;;8.07;6.97;;;23.70;99.90;;;;;;4996148;28;20204;-62
2021/07/25 09:11:38;;;;;;;8.98;7.18;;;23.60;99.90;;;;;;5002872;28;20531;-64
2021/07/25 09:14:05;;;;;;;7.22;6.47;;;23.50;99.90;;;;;;5001420;28;20197;-63
2021/07/25 09:16:32;;;;;;;7.20;5.85;;;23.70;99.90;;;;;;5004369;28;20504;-63
2021/07/25 09:18:58;;;;;;;6.47;5.82;;;23.70;99.90;;;;;;5002381;28;20180;-64
2021/07/25 09:21:43;;;;;;;6.35;5.25;;;23.80;99.90;;;;;;5009401;28;20181;-63
2021/07/25 09:24:19;;;;;;;6.75;5.70;;;24.00;99.90;;;;;;5002915;28;20211;-63
2021/07/25 09:26:53;;;;;;;7.18;5.13;;;24.30;99.90;;;;;;5000889;28;20874;-62
2021/07/25 09:29:21;;;;;;;5.07;4.57;;;24.60;99.90;;;;;;5000437;28;20252;-62
2021/07/25 09:31:47;;;;;;;6.03;4.70;;;24.80;99.90;;;;;;5001435;28;20202;-63
2021/07/25 09:34:33;;;;;;;4.93;4.43;;;25.40;99.90;;;;;;5001420;28;20272;-63
2021/07/25 09:37:22;;;;;;;4.93;4.38;;;25.50;99.90;;;;;;5000888;28;20244;-64
2021/07/25 09:39:53;;;;;;;5.28;4.78;;;25.50;99.90;;;;;;5003368;28;20285;-64
2021/07/25 09:42:28;;;;;;;5.00;4.55;;;25.60;99.90;;;;;;5006319;28;20178;-64
2021/07/25 09:44:59;;;;;;;5.43;4.20;;;25.70;99.90;;;;;;5003185;28;20169;-64
2021/07/25 09:47:33;;;;;;;6.35;4.13;;;26.00;99.90;;;;;;5007196;28;20265;-63
2021/07/25 09:50:00;;;;;;;5.40;4.30;;;26.40;99.90;;;;;;5004414;28;20279;-63
2021/07/25 09:52:30;;;;;;;4.95;4.45;;;26.20;99.90;;;;;;5005658;28;20176;-64
2021/07/25 09:54:59;;;;;;;6.35;4.40;;;26.30;99.90;;;;;;5004197;28;20165;-63
2021/07/25 09:57:25;;;;;;;4.68;4.20;;;26.50;99.90;;;;;;5006016;28;20647;-63
2021/07/25 09:59:52;;;;;;;5.68;4.50;;;26.50;99.90;;;;;;5007228;28;20176;-64
2021/07/25 10:02:37;;;;;;;5.20;4.70;;;26.30;99.90;;;;;;5006717;28;20208;-64
2021/07/25 10:05:15;;;;;;;6.65;4.38;;;26.20;99.90;;;;;;5004868;28;20604;-67
2021/07/25 10:07:41;;;;;;;4.72;4.32;;;26.30;99.90;;;;;;5004407;28;20201;-62
2021/07/25 10:10:09;;;;;;;5.47;4.53;;;26.50;99.90;;;;;;5004684;28;20270;-64
2021/07/25 10:12:36;;;;;;;5.93;4.70;;;26.30;99.90;;;;;;5002169;28;20199;-63
2021/07/25 10:15:09;;;;;;;4.85;4.43;;;26.40;99.90;;;;;;5005389;28;20169;-64
2021/07/25 10:17:40;;;;;;;5.22;4.05;;;26.60;99.90;;;;;;5004350;28;20157;-63
2021/07/25 10:20:08;;;;;;;4.45;4.05;;;26.90;99.90;;;;;;5006237;28;20174;-64
2021/07/25 10:22:35;;;;;;;6.88;4.53;;;27.10;99.90;;;;;;5001646;28;20181;-64
2021/07/25 10:25:03;;;;;;;4.65;4.25;;;27.10;99.90;;;;;;5004626;28;20260;-64
2021/07/25 10:27:31;;;;;;;6.30;4.45;;;27.20;99.90;;;;;;5004221;28;20170;-64
2021/07/25 10:30:04;;;;;;;5.63;4.60;;;27.30;99.90;;;;;;5004385;28;20189;-64
2021/07/25 10:32:32;;;;;;;4.78;4.30;;;27.10;99.90;;;;;;5004201;28;20676;-62
2021/07/25 10:35:04;;;;;;;4.82;4.40;;;26.90;99.90;;;;;;5005615;28;20165;-62
2021/07/25 10:37:31;;;;;;;7.18;4.65;;;26.90;99.90;;;;;;5006201;28;20219;-64
2021/07/25 10:39:58;;;;;;;5.30;4.80;;;26.60;99.90;;;;;;5004737;28;20170;-64
2021/07/25 10:42:27;;;;;;;7.50;4.80;;;26.70;99.90;;;;;;5004299;28;20772;-64
2021/07/25 10:44:53;;;;;;;5.75;4.72;;;26.90;99.90;;;;;;5003993;28;20185;-62
2021/07/25 10:47:29;;;;;;;5.40;4.90;;;27.20;99.90;;;;;;5005015;28;20276;-64
2021/07/25 10:50:07;;;;;;;5.22;4.30;;;27.20;99.90;;;;;;5001845;28;20197;-64
2021/07/25 10:55:43;;;;;;;4.68;4.28;;;26.60;99.90;;;;;;5003111;28;20174;-61
2021/07/25 10:58:17;;;;;;;4.90;4.40;;;26.50;99.90;;;;;;4944830;29;20198;-64
2021/07/25 11:00:50;;;;;;;6.18;4.63;;;26.50;99.90;;;;;;4944259;29;20187;-64
2021/07/25 11:03:24;;;;;;;5.18;4.55;;;26.70;99.90;;;;;;4943445;29;20687;-61
2021/07/25 11:06:02;;;;;;;5.80;4.60;;;26.90;99.90;;;;;;4945416;29;20234;-64
2021/07/25 11:08:32;;;;;;;5.32;4.60;;;26.90;99.90;;;;;;4945186;28;20198;-64
2021/07/25 11:10:58;;;;;;;4.97;4.47;;;26.90;99.90;;;;;;4942831;29;20560;-63
2021/07/25 11:13:38;;;;;;;6.93;4.40;;;26.70;99.90;;;;;;4944609;29;20196;-62
2021/07/25 11:16:31;;;;;;;5.22;4.50;;;26.70;99.90;;;;;;4945431;29;20201;-64
2021/07/25 11:19:20;;;;;;;4.70;4.30;;;26.90;99.90;;;;;;4944057;29;20179;-64
2021/07/25 11:21:50;;;;;;;5.82;4.10;;;27.10;99.90;;;;;;4942201;29;20245;-64
2021/07/25 11:24:18;;;;;;;5.07;4.30;;;27.60;99.90;;;;;;4943424;29;20209;-64
2021/07/25 11:26:51;;;;;;;4.90;4.40;;;27.70;99.90;;;;;;4944399;28;20303;-64
2021/07/25 11:29:37;;;;;;;5.85;4.05;;;28.00;99.90;;;;;;4942989;29;20210;-64
2021/07/25 11:32:38;;;;;;;4.43;4.00;;;28.00;99.90;;;;;;4935309;29;20194;-64
2021/07/25 11:35:07;;;;;;;4.35;4.00;;;27.80;99.90;;;;;;4967422;28;20200;-64
2021/07/25 11:37:42;;;;;;;5.90;4.32;;;28.10;99.90;;;;;;5015750;28;20191;-64
2021/07/25 11:40:08;;;;;;;5.55;4.10;;;28.20;99.90;;;;;;5015622;28;20199;-64
2021/07/25 11:42:34;;;;;;;4.30;4.00;;;28.00;99.90;;;;;;5015010;28;20181;-64
2021/07/25 11:45:06;;;;;;;6.22;4.40;;;27.80;99.90;;;;;;5015674;28;20183;-63
2021/07/25 11:47:33;;;;;;;4.10;3.70;;;27.90;99.90;;;;;;5015317;28;20208;-64
2021/07/25 11:49:59;;;;;;;4.72;4.30;;;28.10;99.90;;;;;;5015252;28;20208;-64
2021/07/25 11:52:27;;;;;;;4.85;4.35;;;28.30;99.90;;;;;;5014874;28;20173;-63
2021/07/25 11:54:53;;;;;;;5.60;4.40;;;28.80;99.90;;;;;;5007988;28;20729;-67
2021/07/25 11:57:24;;;;;;;4.53;4.13;;;29.10;99.90;;;;;;5005459;28;20181;-64
2021/07/25 11:59:52;;;;;;;4.50;3.90;;;29.20;99.90;;;;;;5004564;28;20181;-64
2021/07/25 12:02:33;;;;;;;3.92;3.63;;;29.60;99.90;;;;;;5005348;28;20200;-64
2021/07/25 12:05:00;;;;;;;4.30;3.90;;;29.40;99.90;;;;;;5005376;28;20259;-64
2021/07/25 12:07:37;;;;;;;4.57;3.80;;;29.20;99.90;;;;;;5004147;28;20173;-64
2021/07/25 12:10:04;;;;;;;4.75;3.97;;;29.20;99.90;;;;;;4999481;28;20216;-64
2021/07/25 12:12:36;;;;;;;4.60;3.90;;;29.50;99.90;;;;;;4998202;28;20176;-64
2021/07/25 12:15:03;;;;;;;4.15;3.75;;;30.00;99.90;;;;;;5003545;28;20153;-63
2021/07/25 12:17:50;;;;;;;4.38;3.97;;;29.80;99.90;;;;;;5003185;28;20172;-64
2021/07/25 12:20:19;;;;;;;4.72;3.85;;;29.90;99.90;;;;;;5000114;28;20166;-64
2021/07/25 12:22:57;;;;;;;4.32;3.70;;;30.10;99.90;;;;;;4994662;28;20728;-64
2021/07/25 12:25:27;;;;;;;3.97;3.67;;;30.30;99.90;;;;;;4995151;28;20557;-64
2021/07/25 12:28:11;;;;;;;4.38;3.97;;;30.40;99.90;;;;;;4994655;28;20346;-64
2021/07/25 12:30:47;;;;;;;3.95;3.63;;;30.70;99.90;;;;;;4995188;28;20205;-65
2021/07/25 12:33:14;;;;;;;4.35;3.95;;;30.80;99.90;;;;;;4994423;28;20679;-63
2021/07/25 12:35:40;;;;;;;4.43;4.03;;;30.80;99.90;;;;;;4994670;28;20257;-64
2021/07/25 12:38:14;;;;;;;6.35;4.13;;;30.80;99.90;;;;;;4995155;28;20185;-64
2021/07/25 12:40:56;;;;;;;4.13;3.72;;;30.40;99.90;;;;;;4999381;28;20300;-64
2021/07/25 12:43:23;;;;;;;6.10;3.88;;;30.40;99.90;;;;;;4985409;28;20201;-62
2021/07/25 12:45:50;;;;;;;4.97;4.13;;;30.50;99.90;;;;;;4975674;28;20181;-61
2021/07/25 12:48:23;;;;;;;4.30;4.00;;;30.70;99.90;;;;;;4978550;28;20195;-63
2021/07/25 12:50:54;;;;;;;5.63;3.60;;;30.50;99.90;;;;;;4993811;28;20209;-65
2021/07/25 12:53:29;;;;;;;4.35;3.95;;;30.30;99.90;;;;;;4994248;28;20569;-65
2021/07/25 12:55:56;;;;;;;5.65;4.22;;;30.50;99.90;;;;;;4996914;28;20212;-62